sensor_id;sensor_type;location;lat;lon;timestamp;P1;durP1;ratioP1;P2;durP2;ratioP2
40453;SDS011;26160;51.858;4.398;2023-02-21T00:01:57;72.33;;;24.33;;
40453;SDS011;26160;51.858;4.398;2023-02-21T00:04:41;58.03;;;23.00;;
40453;SDS011;26160;51.858;4.398;2023-02-21T00:07:27;65.60;;;23.33;;
40453;SDS011;26160;51.858;4.398;2023-02-21T00:10:12;55.10;;;23.00;;
40453;SDS011;26160;51.858;4.398;2023-02-21T00:12:58;65.67;;;24.33;;
40453;SDS011;26160;51.858;4.398;2023-02-21T00:15:42;68.23;;;25.90;;
40453;SDS011;26160;51.858;4.398;2023-02-21T00:18:27;76.00;;;27.20;;
40453;SDS011;26160;51.858;4.398;2023-02-21T00:21:16;71.10;;;27.10;;
40453;SDS011;26160;51.858;4.398;2023-02-21T00:24:00;69.47;;;26.83;;
40453;SDS011;26160;51.858;4.398;2023-02-21T00:26:45;61.53;;;25.80;;
40453;SDS011;26160;51.858;4.398;2023-02-21T00:29:29;60.80;;;26.60;;
40453;SDS011;26160;51.858;4.398;2023-02-21T00:32:14;73.23;;;28.73;;
40453;SDS011;26160;51.858;4.398;2023-02-21T00:34:59;65.30;;;27.40;;
40453;SDS011;26160;51.858;4.398;2023-02-21T00:37:43;67.33;;;28.87;;
40453;SDS011;26160;51.858;4.398;2023-02-21T00:40:31;69.37;;;29.20;;
40453;SDS011;26160;51.858;4.398;2023-02-21T00:43:16;62.73;;;27.67;;
40453;SDS011;26160;51.858;4.398;2023-02-21T00:46:01;65.13;;;29.40;;
40453;SDS011;26160;51.858;4.398;2023-02-21T00:48:46;59.57;;;28.13;;
40453;SDS011;26160;51.858;4.398;2023-02-21T00:51:30;57.40;;;28.20;;
40453;SDS011;26160;51.858;4.398;2023-02-21T00:54:15;61.43;;;29.03;;
40453;SDS011;26160;51.858;4.398;2023-02-21T00:57:00;71.57;;;30.90;;
40453;SDS011;26160;51.858;4.398;2023-02-21T00:59:44;69.07;;;28.37;;
40453;SDS011;26160;51.858;4.398;2023-02-21T01:02:29;58.63;;;27.17;;
40453;SDS011;26160;51.858;4.398;2023-02-21T01:05:13;72.07;;;28.33;;
40453;SDS011;26160;51.858;4.398;2023-02-21T01:07:58;57.67;;;26.97;;
40453;SDS011;26160;51.858;4.398;2023-02-21T01:10:43;71.83;;;28.47;;
40453;SDS011;26160;51.858;4.398;2023-02-21T01:13:27;53.93;;;25.30;;
40453;SDS011;26160;51.858;4.398;2023-02-21T01:16:12;75.17;;;29.43;;
40453;SDS011;26160;51.858;4.398;2023-02-21T01:18:57;55.33;;;26.83;;
40453;SDS011;26160;51.858;4.398;2023-02-21T01:21:41;58.87;;;26.63;;
40453;SDS011;26160;51.858;4.398;2023-02-21T01:24:26;61.43;;;26.80;;
40453;SDS011;26160;51.858;4.398;2023-02-21T01:27:11;56.03;;;27.23;;
40453;SDS011;26160;51.858;4.398;2023-02-21T01:29:55;71.20;;;27.87;;
40453;SDS011;26160;51.858;4.398;2023-02-21T01:32:40;63.77;;;28.87;;
40453;SDS011;26160;51.858;4.398;2023-02-21T01:35:24;61.97;;;28.00;;
40453;SDS011;26160;51.858;4.398;2023-02-21T01:38:09;72.43;;;31.43;;
40453;SDS011;26160;51.858;4.398;2023-02-21T01:40:54;55.63;;;27.40;;
40453;SDS011;26160;51.858;4.398;2023-02-21T01:43:54;67.27;;;30.43;;
40453;SDS011;26160;51.858;4.398;2023-02-21T01:46:44;68.83;;;29.93;;
40453;SDS011;26160;51.858;4.398;2023-02-21T01:49:28;63.93;;;30.90;;
40453;SDS011;26160;51.858;4.398;2023-02-21T01:52:14;61.97;;;30.10;;
40453;SDS011;26160;51.858;4.398;2023-02-21T01:55:00;78.00;;;34.40;;
40453;SDS011;26160;51.858;4.398;2023-02-21T01:57:45;70.60;;;32.83;;
40453;SDS011;26160;51.858;4.398;2023-02-21T02:03:07;63.43;;;31.63;;
40453;SDS011;26160;51.858;4.398;2023-02-21T02:06:00;73.93;;;33.87;;
40453;SDS011;26160;51.858;4.398;2023-02-21T02:08:47;87.83;;;36.80;;
40453;SDS011;26160;51.858;4.398;2023-02-21T02:11:36;76.47;;;34.67;;
40453;SDS011;26160;51.858;4.398;2023-02-21T02:17:14;75.47;;;35.55;;
40453;SDS011;26160;51.858;4.398;2023-02-21T02:23:03;71.70;;;33.13;;
40453;SDS011;26160;51.858;4.398;2023-02-21T02:36:56;83.57;;;35.53;;
40453;SDS011;26160;51.858;4.398;2023-02-21T02:42:18;69.87;;;32.60;;
40453;SDS011;26160;51.858;4.398;2023-02-21T02:44:57;75.97;;;34.57;;
40453;SDS011;26160;51.858;4.398;2023-02-21T02:47:30;78.70;;;34.83;;
40453;SDS011;26160;51.858;4.398;2023-02-21T02:50:02;79.10;;;34.93;;
40453;SDS011;26160;51.858;4.398;2023-02-21T02:52:33;77.50;;;35.20;;
40453;SDS011;26160;51.858;4.398;2023-02-21T02:55:02;80.77;;;37.57;;
40453;SDS011;26160;51.858;4.398;2023-02-21T02:57:31;80.60;;;35.97;;
40453;SDS011;26160;51.858;4.398;2023-02-21T03:00:11;75.37;;;36.03;;
40453;SDS011;26160;51.858;4.398;2023-02-21T03:08:07;89.10;;;36.63;;
40453;SDS011;26160;51.858;4.398;2023-02-21T03:10:52;67.57;;;34.60;;
40453;SDS011;26160;51.858;4.398;2023-02-21T03:13:39;74.75;;;35.58;;
40453;SDS011;26160;51.858;4.398;2023-02-21T03:16:29;93.80;;;38.97;;
40453;SDS011;26160;51.858;4.398;2023-02-21T03:19:06;81.47;;;34.77;;
40453;SDS011;26160;51.858;4.398;2023-02-21T03:21:48;78.13;;;34.97;;
40453;SDS011;26160;51.858;4.398;2023-02-21T03:24:18;81.33;;;35.60;;
40453;SDS011;26160;51.858;4.398;2023-02-21T03:26:47;76.07;;;36.03;;
40453;SDS011;26160;51.858;4.398;2023-02-21T03:29:16;69.53;;;33.17;;
40453;SDS011;26160;51.858;4.398;2023-02-21T03:31:46;73.67;;;34.27;;
40453;SDS011;26160;51.858;4.398;2023-02-21T03:34:18;69.17;;;33.13;;
40453;SDS011;26160;51.858;4.398;2023-02-21T03:36:44;74.20;;;33.87;;
40453;SDS011;26160;51.858;4.398;2023-02-21T03:39:12;72.70;;;33.67;;
40453;SDS011;26160;51.858;4.398;2023-02-21T03:41:38;62.03;;;31.57;;
40453;SDS011;26160;51.858;4.398;2023-02-21T03:44:05;83.53;;;37.60;;
40453;SDS011;26160;51.858;4.398;2023-02-21T03:46:31;70.57;;;34.07;;
40453;SDS011;26160;51.858;4.398;2023-02-21T03:48:58;76.30;;;34.07;;
40453;SDS011;26160;51.858;4.398;2023-02-21T03:51:24;71.33;;;33.67;;
40453;SDS011;26160;51.858;4.398;2023-02-21T03:53:50;67.60;;;33.43;;
40453;SDS011;26160;51.858;4.398;2023-02-21T03:56:17;59.27;;;32.07;;
40453;SDS011;26160;51.858;4.398;2023-02-21T03:58:44;65.83;;;32.30;;
40453;SDS011;26160;51.858;4.398;2023-02-21T04:01:16;78.10;;;34.60;;
40453;SDS011;26160;51.858;4.398;2023-02-21T04:03:42;62.75;;;32.47;;
40453;SDS011;26160;51.858;4.398;2023-02-21T04:06:08;62.50;;;31.90;;
40453;SDS011;26160;51.858;4.398;2023-02-21T04:08:34;67.00;;;33.40;;
40453;SDS011;26160;51.858;4.398;2023-02-21T04:11:00;65.67;;;34.20;;
40453;SDS011;26160;51.858;4.398;2023-02-21T04:13:26;75.53;;;35.90;;
40453;SDS011;26160;51.858;4.398;2023-02-21T04:15:59;72.10;;;33.23;;
40453;SDS011;26160;51.858;4.398;2023-02-21T04:18:27;70.33;;;34.27;;
40453;SDS011;26160;51.858;4.398;2023-02-21T04:20:55;78.03;;;35.73;;
40453;SDS011;26160;51.858;4.398;2023-02-21T04:23:21;67.57;;;35.47;;
40453;SDS011;26160;51.858;4.398;2023-02-21T04:25:47;80.53;;;35.40;;
40453;SDS011;26160;51.858;4.398;2023-02-21T04:28:13;66.87;;;35.13;;
40453;SDS011;26160;51.858;4.398;2023-02-21T04:30:39;59.77;;;33.23;;
40453;SDS011;26160;51.858;4.398;2023-02-21T04:33:06;81.97;;;37.30;;
40453;SDS011;26160;51.858;4.398;2023-02-21T04:35:32;68.17;;;33.67;;
40453;SDS011;26160;51.858;4.398;2023-02-21T04:38:02;66.47;;;34.30;;
40453;SDS011;26160;51.858;4.398;2023-02-21T04:40:28;68.27;;;36.13;;
40453;SDS011;26160;51.858;4.398;2023-02-21T04:42:54;73.33;;;37.63;;
40453;SDS011;26160;51.858;4.398;2023-02-21T04:45:22;77.60;;;36.60;;
40453;SDS011;26160;51.858;4.398;2023-02-21T04:47:48;59.47;;;32.73;;
40453;SDS011;26160;51.858;4.398;2023-02-21T04:50:14;64.07;;;35.77;;
40453;SDS011;26160;51.858;4.398;2023-02-21T04:52:44;74.90;;;35.90;;
40453;SDS011;26160;51.858;4.398;2023-02-21T04:55:12;73.83;;;37.30;;
40453;SDS011;26160;51.858;4.398;2023-02-21T04:57:40;75.23;;;36.40;;
40453;SDS011;26160;51.858;4.398;2023-02-21T05:00:12;68.17;;;34.17;;
40453;SDS011;26160;51.858;4.398;2023-02-21T05:02:42;83.10;;;38.57;;
40453;SDS011;26160;51.858;4.398;2023-02-21T05:05:11;69.77;;;35.37;;
40453;SDS011;26160;51.858;4.398;2023-02-21T05:07:40;65.43;;;35.07;;
40453;SDS011;26160;51.858;4.398;2023-02-21T05:10:07;68.13;;;35.63;;
40453;SDS011;26160;51.858;4.398;2023-02-21T05:12:40;73.67;;;35.67;;
40453;SDS011;26160;51.858;4.398;2023-02-21T05:15:06;61.38;;;33.10;;
40453;SDS011;26160;51.858;4.398;2023-02-21T05:17:33;64.93;;;33.83;;
40453;SDS011;26160;51.858;4.398;2023-02-21T05:19:59;65.17;;;34.67;;
40453;SDS011;26160;51.858;4.398;2023-02-21T05:22:26;64.97;;;35.00;;
40453;SDS011;26160;51.858;4.398;2023-02-21T05:24:52;62.67;;;32.80;;
40453;SDS011;26160;51.858;4.398;2023-02-21T05:27:19;64.23;;;34.53;;
40453;SDS011;26160;51.858;4.398;2023-02-21T05:29:47;69.87;;;34.43;;
40453;SDS011;26160;51.858;4.398;2023-02-21T05:32:20;81.07;;;37.33;;
40453;SDS011;26160;51.858;4.398;2023-02-21T05:37:13;66.30;;;32.73;;
40453;SDS011;26160;51.858;4.398;2023-02-21T05:39:40;67.77;;;35.17;;
40453;SDS011;26160;51.858;4.398;2023-02-21T05:42:07;67.93;;;33.20;;
40453;SDS011;26160;51.858;4.398;2023-02-21T05:44:34;58.37;;;32.77;;
40453;SDS011;26160;51.858;4.398;2023-02-21T05:47:00;61.40;;;33.23;;
40453;SDS011;26160;51.858;4.398;2023-02-21T05:54:25;81.03;;;39.03;;
40453;SDS011;26160;51.858;4.398;2023-02-21T05:56:55;70.40;;;36.73;;
40453;SDS011;26160;51.858;4.398;2023-02-21T05:59:21;89.60;;;41.00;;
40453;SDS011;26160;51.858;4.398;2023-02-21T06:01:48;78.53;;;37.90;;
40453;SDS011;26160;51.858;4.398;2023-02-21T06:04:16;86.43;;;38.83;;
40453;SDS011;26160;51.858;4.398;2023-02-21T06:06:42;86.97;;;36.77;;
40453;SDS011;26160;51.858;4.398;2023-02-21T06:09:09;75.83;;;36.03;;
40453;SDS011;26160;51.858;4.398;2023-02-21T06:11:40;76.57;;;36.07;;
40453;SDS011;26160;51.858;4.398;2023-02-21T06:14:07;69.83;;;36.17;;
40453;SDS011;26160;51.858;4.398;2023-02-21T06:16:44;85.03;;;39.23;;
40453;SDS011;26160;51.858;4.398;2023-02-21T06:19:11;68.80;;;36.80;;
40453;SDS011;26160;51.858;4.398;2023-02-21T06:21:38;77.73;;;37.77;;
40453;SDS011;26160;51.858;4.398;2023-02-21T06:24:06;85.50;;;39.03;;
40453;SDS011;26160;51.858;4.398;2023-02-21T06:26:33;79.17;;;38.33;;
40453;SDS011;26160;51.858;4.398;2023-02-21T06:29:00;80.93;;;37.53;;
40453;SDS011;26160;51.858;4.398;2023-02-21T06:31:30;77.67;;;39.23;;
40453;SDS011;26160;51.858;4.398;2023-02-21T06:33:56;77.90;;;39.70;;
40453;SDS011;26160;51.858;4.398;2023-02-21T06:42:01;87.70;;;41.27;;
40453;SDS011;26160;51.858;4.398;2023-02-21T06:44:27;80.73;;;37.83;;
40453;SDS011;26160;51.858;4.398;2023-02-21T06:46:56;101.60;;;41.83;;
40453;SDS011;26160;51.858;4.398;2023-02-21T06:49:24;84.80;;;39.67;;
40453;SDS011;26160;51.858;4.398;2023-02-21T06:51:50;111.83;;;43.97;;
40453;SDS011;26160;51.858;4.398;2023-02-21T06:54:20;90.43;;;39.80;;
40453;SDS011;26160;51.858;4.398;2023-02-21T06:56:49;95.03;;;40.57;;
40453;SDS011;26160;51.858;4.398;2023-02-21T07:01:45;81.87;;;36.13;;
40453;SDS011;26160;51.858;4.398;2023-02-21T07:04:12;75.73;;;36.00;;
40453;SDS011;26160;51.858;4.398;2023-02-21T07:06:42;93.93;;;38.23;;
40453;SDS011;26160;51.858;4.398;2023-02-21T07:09:10;73.40;;;35.33;;
40453;SDS011;26160;51.858;4.398;2023-02-21T07:11:36;79.37;;;34.80;;
40453;SDS011;26160;51.858;4.398;2023-02-21T07:14:04;66.93;;;33.03;;
40453;SDS011;26160;51.858;4.398;2023-02-21T07:16:31;73.83;;;34.03;;
40453;SDS011;26160;51.858;4.398;2023-02-21T07:19:01;72.80;;;34.43;;
40453;SDS011;26160;51.858;4.398;2023-02-21T07:21:27;74.07;;;34.50;;
40453;SDS011;26160;51.858;4.398;2023-02-21T07:23:55;70.13;;;33.57;;
40453;SDS011;26160;51.858;4.398;2023-02-21T07:26:21;66.97;;;33.13;;
40453;SDS011;26160;51.858;4.398;2023-02-21T07:28:47;64.30;;;33.23;;
40453;SDS011;26160;51.858;4.398;2023-02-21T07:31:15;71.93;;;32.43;;
40453;SDS011;26160;51.858;4.398;2023-02-21T07:33:41;69.80;;;34.40;;
40453;SDS011;26160;51.858;4.398;2023-02-21T07:36:08;74.80;;;33.43;;
40453;SDS011;26160;51.858;4.398;2023-02-21T07:38:35;66.80;;;32.33;;
40453;SDS011;26160;51.858;4.398;2023-02-21T07:41:04;70.20;;;35.40;;
40453;SDS011;26160;51.858;4.398;2023-02-21T07:43:31;67.77;;;32.70;;
40453;SDS011;26160;51.858;4.398;2023-02-21T07:45:57;96.27;;;36.30;;
40453;SDS011;26160;51.858;4.398;2023-02-21T07:48:24;67.10;;;31.73;;
40453;SDS011;26160;51.858;4.398;2023-02-21T07:50:51;75.47;;;31.43;;
40453;SDS011;26160;51.858;4.398;2023-02-21T07:53:17;71.47;;;32.87;;
40453;SDS011;26160;51.858;4.398;2023-02-21T07:55:44;76.97;;;35.33;;
40453;SDS011;26160;51.858;4.398;2023-02-21T07:58:10;72.50;;;32.23;;
40453;SDS011;26160;51.858;4.398;2023-02-21T08:00:36;91.00;;;35.17;;
40453;SDS011;26160;51.858;4.398;2023-02-21T08:03:02;80.40;;;32.60;;
40453;SDS011;26160;51.858;4.398;2023-02-21T08:05:28;68.47;;;32.73;;
40453;SDS011;26160;51.858;4.398;2023-02-21T08:07:55;71.63;;;32.83;;
40453;SDS011;26160;51.858;4.398;2023-02-21T08:10:24;67.63;;;31.43;;
40453;SDS011;26160;51.858;4.398;2023-02-21T08:12:53;70.43;;;33.33;;
40453;SDS011;26160;51.858;4.398;2023-02-21T08:15:20;68.53;;;32.70;;
40453;SDS011;26160;51.858;4.398;2023-02-21T08:17:47;77.43;;;32.37;;
40453;SDS011;26160;51.858;4.398;2023-02-21T08:20:15;72.87;;;33.60;;
40453;SDS011;26160;51.858;4.398;2023-02-21T08:22:42;79.33;;;33.33;;
40453;SDS011;26160;51.858;4.398;2023-02-21T08:25:12;74.00;;;32.10;;
40453;SDS011;26160;51.858;4.398;2023-02-21T08:27:41;73.23;;;33.10;;
40453;SDS011;26160;51.858;4.398;2023-02-21T08:30:10;64.63;;;31.90;;
40453;SDS011;26160;51.858;4.398;2023-02-21T08:32:44;72.33;;;33.33;;
40453;SDS011;26160;51.858;4.398;2023-02-21T08:35:16;66.13;;;32.03;;
40453;SDS011;26160;51.858;4.398;2023-02-21T08:37:47;69.63;;;33.63;;
40453;SDS011;26160;51.858;4.398;2023-02-21T08:40:17;66.73;;;31.37;;
40453;SDS011;26160;51.858;4.398;2023-02-21T08:42:47;73.40;;;32.90;;
40453;SDS011;26160;51.858;4.398;2023-02-21T08:45:27;65.33;;;31.17;;
40453;SDS011;26160;51.858;4.398;2023-02-21T08:47:55;74.00;;;33.97;;
40453;SDS011;26160;51.858;4.398;2023-02-21T08:50:31;74.47;;;34.57;;
40453;SDS011;26160;51.858;4.398;2023-02-21T08:53:00;71.80;;;32.30;;
40453;SDS011;26160;51.858;4.398;2023-02-21T08:55:26;79.93;;;34.53;;
40453;SDS011;26160;51.858;4.398;2023-02-21T08:57:53;73.03;;;33.13;;
40453;SDS011;26160;51.858;4.398;2023-02-21T09:00:20;69.30;;;32.20;;
40453;SDS011;26160;51.858;4.398;2023-02-21T09:02:52;82.07;;;36.07;;
40453;SDS011;26160;51.858;4.398;2023-02-21T09:05:23;66.47;;;32.60;;
40453;SDS011;26160;51.858;4.398;2023-02-21T09:07:53;75.20;;;34.70;;
40453;SDS011;26160;51.858;4.398;2023-02-21T09:10:32;66.95;;;33.33;;
40453;SDS011;26160;51.858;4.398;2023-02-21T09:12:59;74.33;;;33.87;;
40453;SDS011;26160;51.858;4.398;2023-02-21T09:15:40;65.17;;;32.93;;
40453;SDS011;26160;51.858;4.398;2023-02-21T09:18:10;70.53;;;34.43;;
40453;SDS011;26160;51.858;4.398;2023-02-21T09:20:37;61.57;;;31.17;;
40453;SDS011;26160;51.858;4.398;2023-02-21T09:23:06;68.47;;;34.73;;
40453;SDS011;26160;51.858;4.398;2023-02-21T09:25:33;74.33;;;33.87;;
40453;SDS011;26160;51.858;4.398;2023-02-21T09:27:59;67.73;;;34.23;;
40453;SDS011;26160;51.858;4.398;2023-02-21T09:30:28;62.50;;;31.83;;
40453;SDS011;26160;51.858;4.398;2023-02-21T09:32:55;71.50;;;35.07;;
40453;SDS011;26160;51.858;4.398;2023-02-21T09:35:21;62.57;;;32.67;;
40453;SDS011;26160;51.858;4.398;2023-02-21T09:37:48;64.83;;;32.37;;
40453;SDS011;26160;51.858;4.398;2023-02-21T09:40:17;61.80;;;33.20;;
40453;SDS011;26160;51.858;4.398;2023-02-21T09:43:02;67.47;;;35.00;;
40453;SDS011;26160;51.858;4.398;2023-02-21T09:45:31;63.33;;;32.37;;
40453;SDS011;26160;51.858;4.398;2023-02-21T09:48:00;64.90;;;33.73;;
40453;SDS011;26160;51.858;4.398;2023-02-21T09:50:32;68.13;;;33.40;;
40453;SDS011;26160;51.858;4.398;2023-02-21T09:53:04;60.50;;;32.23;;
40453;SDS011;26160;51.858;4.398;2023-02-21T09:55:33;68.87;;;35.03;;
40453;SDS011;26160;51.858;4.398;2023-02-21T09:58:01;61.90;;;33.67;;
40453;SDS011;26160;51.858;4.398;2023-02-21T10:00:28;63.30;;;32.47;;
40453;SDS011;26160;51.858;4.398;2023-02-21T10:05:56;71.63;;;33.20;;
40453;SDS011;26160;51.858;4.398;2023-02-21T10:17:21;51.73;;;27.73;;
40453;SDS011;26160;51.858;4.398;2023-02-21T10:19:58;52.57;;;28.90;;
40453;SDS011;26160;51.858;4.398;2023-02-21T10:22:30;49.73;;;27.63;;
40453;SDS011;26160;51.858;4.398;2023-02-21T10:25:00;53.60;;;28.27;;
40453;SDS011;26160;51.858;4.398;2023-02-21T10:27:45;45.40;;;26.43;;
40453;SDS011;26160;51.858;4.398;2023-02-21T10:30:14;44.40;;;26.07;;
40453;SDS011;26160;51.858;4.398;2023-02-21T10:32:55;45.17;;;25.77;;
40453;SDS011;26160;51.858;4.398;2023-02-21T10:35:21;40.30;;;24.47;;
40453;SDS011;26160;51.858;4.398;2023-02-21T10:37:55;45.73;;;25.07;;
40453;SDS011;26160;51.858;4.398;2023-02-21T10:40:28;49.07;;;26.03;;
40453;SDS011;26160;51.858;4.398;2023-02-21T10:42:58;37.07;;;22.80;;
40453;SDS011;26160;51.858;4.398;2023-02-21T10:45:43;39.93;;;23.80;;
40453;SDS011;26160;51.858;4.398;2023-02-21T10:48:15;38.17;;;23.53;;
40453;SDS011;26160;51.858;4.398;2023-02-21T10:53:23;32.97;;;20.57;;
40453;SDS011;26160;51.858;4.398;2023-02-21T10:58:43;38.03;;;21.57;;
40453;SDS011;26160;51.858;4.398;2023-02-21T11:03:51;30.37;;;18.93;;
40453;SDS011;26160;51.858;4.398;2023-02-21T11:08:55;29.83;;;18.80;;
40453;SDS011;26160;51.858;4.398;2023-02-21T11:11:32;29.37;;;17.67;;
40453;SDS011;26160;51.858;4.398;2023-02-21T11:17:08;31.07;;;17.73;;
40453;SDS011;26160;51.858;4.398;2023-02-21T11:19:55;28.33;;;17.63;;
40453;SDS011;26160;51.858;4.398;2023-02-21T11:24:55;28.07;;;17.23;;
40453;SDS011;26160;51.858;4.398;2023-02-21T11:27:42;27.33;;;16.77;;
40453;SDS011;26160;51.858;4.398;2023-02-21T11:30:19;29.23;;;17.67;;
40453;SDS011;26160;51.858;4.398;2023-02-21T11:32:53;27.97;;;16.93;;
40453;SDS011;26160;51.858;4.398;2023-02-21T11:35:25;24.77;;;16.17;;
40453;SDS011;26160;51.858;4.398;2023-02-21T11:38:00;28.90;;;17.17;;
40453;SDS011;26160;51.858;4.398;2023-02-21T11:40:43;25.70;;;17.20;;
40453;SDS011;26160;51.858;4.398;2023-02-21T11:48:24;25.93;;;16.10;;
40453;SDS011;26160;51.858;4.398;2023-02-21T11:50:58;26.63;;;15.63;;
40453;SDS011;26160;51.858;4.398;2023-02-21T11:53:39;25.10;;;15.73;;
40453;SDS011;26160;51.858;4.398;2023-02-21T11:56:57;26.33;;;14.67;;
40453;SDS011;26160;51.858;4.398;2023-02-21T11:59:19;22.47;;;14.40;;
40453;SDS011;26160;51.858;4.398;2023-02-21T12:13:32;23.93;;;13.10;;
40453;SDS011;26160;51.858;4.398;2023-02-21T12:32:48;16.53;;;8.93;;
40453;SDS011;26160;51.858;4.398;2023-02-21T12:38:41;13.37;;;7.97;;
40453;SDS011;26160;51.858;4.398;2023-02-21T12:44:18;12.67;;;8.57;;
40453;SDS011;26160;51.858;4.398;2023-02-21T12:47:10;12.87;;;8.20;;
40453;SDS011;26160;51.858;4.398;2023-02-21T12:49:58;12.60;;;8.07;;
40453;SDS011;26160;51.858;4.398;2023-02-21T12:52:31;14.57;;;9.57;;
40453;SDS011;26160;51.858;4.398;2023-02-21T12:55:03;15.70;;;8.83;;
40453;SDS011;26160;51.858;4.398;2023-02-21T13:00:38;14.73;;;8.97;;
40453;SDS011;26160;51.858;4.398;2023-02-21T13:06:15;12.67;;;8.20;;
40453;SDS011;26160;51.858;4.398;2023-02-21T13:17:03;16.53;;;9.60;;
40453;SDS011;26160;51.858;4.398;2023-02-21T13:19:37;14.85;;;9.40;;
40453;SDS011;26160;51.858;4.398;2023-02-21T13:22:25;15.43;;;10.43;;
40453;SDS011;26160;51.858;4.398;2023-02-21T13:25:26;20.37;;;12.00;;
40453;SDS011;26160;51.858;4.398;2023-02-21T13:31:02;28.70;;;16.30;;
40453;SDS011;26160;51.858;4.398;2023-02-21T13:33:39;28.80;;;18.03;;
40453;SDS011;26160;51.858;4.398;2023-02-21T13:36:24;29.17;;;17.30;;
40453;SDS011;26160;51.858;4.398;2023-02-21T13:44:52;30.37;;;16.93;;
40453;SDS011;26160;51.858;4.398;2023-02-21T13:53:19;26.33;;;15.17;;
40453;SDS011;26160;51.858;4.398;2023-02-21T13:56:30;28.73;;;16.17;;
40453;SDS011;26160;51.858;4.398;2023-02-21T13:58:42;27.80;;;15.33;;
40453;SDS011;26160;51.858;4.398;2023-02-21T14:01:18;31.17;;;17.50;;
40453;SDS011;26160;51.858;4.398;2023-02-21T14:07:08;28.73;;;16.33;;
40453;SDS011;26160;51.858;4.398;2023-02-21T14:09:37;35.47;;;17.77;;
40453;SDS011;26160;51.858;4.398;2023-02-21T14:12:06;34.17;;;18.03;;
40453;SDS011;26160;51.858;4.398;2023-02-21T14:14:39;33.50;;;18.53;;
40453;SDS011;26160;51.858;4.398;2023-02-21T14:17:09;33.50;;;19.27;;
40453;SDS011;26160;51.858;4.398;2023-02-21T14:19:45;34.40;;;17.80;;
40453;SDS011;26160;51.858;4.398;2023-02-21T14:22:21;47.57;;;20.97;;
40453;SDS011;26160;51.858;4.398;2023-02-21T14:27:42;38.90;;;19.77;;
40453;SDS011;26160;51.858;4.398;2023-02-21T14:32:43;40.23;;;20.03;;
40453;SDS011;26160;51.858;4.398;2023-02-21T14:35:34;43.27;;;19.93;;
40453;SDS011;26160;51.858;4.398;2023-02-21T14:38:03;51.77;;;24.33;;
40453;SDS011;26160;51.858;4.398;2023-02-21T14:40:46;81.03;;;36.13;;
40453;SDS011;26160;51.858;4.398;2023-02-21T14:51:39;88.27;;;39.03;;
40453;SDS011;26160;51.858;4.398;2023-02-21T14:56:42;74.80;;;35.67;;
40453;SDS011;26160;51.858;4.398;2023-02-21T15:10:28;79.47;;;36.60;;
40453;SDS011;26160;51.858;4.398;2023-02-21T15:12:57;75.17;;;35.23;;
40453;SDS011;26160;51.858;4.398;2023-02-21T15:15:27;74.70;;;35.90;;
40453;SDS011;26160;51.858;4.398;2023-02-21T15:20:29;72.83;;;36.80;;
40453;SDS011;26160;51.858;4.398;2023-02-21T15:22:59;69.97;;;33.57;;
40453;SDS011;26160;51.858;4.398;2023-02-21T15:25:35;64.53;;;32.00;;
40453;SDS011;26160;51.858;4.398;2023-02-21T15:28:02;62.70;;;29.53;;
40453;SDS011;26160;51.858;4.398;2023-02-21T15:30:53;55.40;;;27.07;;
40453;SDS011;26160;51.858;4.398;2023-02-21T15:33:22;46.13;;;24.67;;
40453;SDS011;26160;51.858;4.398;2023-02-21T15:35:53;44.73;;;23.33;;
40453;SDS011;26160;51.858;4.398;2023-02-21T15:40:53;39.30;;;21.83;;
40453;SDS011;26160;51.858;4.398;2023-02-21T15:43:45;38.47;;;20.17;;
40453;SDS011;26160;51.858;4.398;2023-02-21T15:46:16;38.57;;;20.27;;
40453;SDS011;26160;51.858;4.398;2023-02-21T15:48:47;40.40;;;20.20;;
40453;SDS011;26160;51.858;4.398;2023-02-21T15:51:14;44.33;;;23.40;;
40453;SDS011;26160;51.858;4.398;2023-02-21T15:53:41;39.90;;;21.77;;
40453;SDS011;26160;51.858;4.398;2023-02-21T15:56:15;39.37;;;20.33;;
40453;SDS011;26160;51.858;4.398;2023-02-21T16:01:33;39.77;;;20.73;;
40453;SDS011;26160;51.858;4.398;2023-02-21T16:06:50;37.90;;;20.93;;
40453;SDS011;26160;51.858;4.398;2023-02-21T16:12:00;42.17;;;22.40;;
40453;SDS011;26160;51.858;4.398;2023-02-21T16:17:34;44.00;;;23.10;;
40453;SDS011;26160;51.858;4.398;2023-02-21T16:20:25;40.13;;;22.33;;
40453;SDS011;26160;51.858;4.398;2023-02-21T16:28:23;47.10;;;22.17;;
40453;SDS011;26160;51.858;4.398;2023-02-21T16:30:50;49.93;;;23.40;;
40453;SDS011;26160;51.858;4.398;2023-02-21T16:33:16;47.87;;;22.37;;
40453;SDS011;26160;51.858;4.398;2023-02-21T16:35:43;44.90;;;22.50;;
40453;SDS011;26160;51.858;4.398;2023-02-21T16:38:12;41.77;;;22.50;;
40453;SDS011;26160;51.858;4.398;2023-02-21T16:40:40;36.50;;;19.53;;
40453;SDS011;26160;51.858;4.398;2023-02-21T16:43:07;39.90;;;20.77;;
40453;SDS011;26160;51.858;4.398;2023-02-21T16:45:41;42.60;;;21.67;;
40453;SDS011;26160;51.858;4.398;2023-02-21T16:48:13;38.37;;;20.57;;
40453;SDS011;26160;51.858;4.398;2023-02-21T16:50:45;38.77;;;19.30;;
40453;SDS011;26160;51.858;4.398;2023-02-21T16:53:13;34.33;;;19.17;;
40453;SDS011;26160;51.858;4.398;2023-02-21T16:55:40;34.47;;;18.53;;
40453;SDS011;26160;51.858;4.398;2023-02-21T16:58:20;32.73;;;17.87;;
40453;SDS011;26160;51.858;4.398;2023-02-21T17:00:48;36.53;;;18.07;;
40453;SDS011;26160;51.858;4.398;2023-02-21T17:03:15;33.07;;;17.73;;
40453;SDS011;26160;51.858;4.398;2023-02-21T17:05:41;35.20;;;18.90;;
40453;SDS011;26160;51.858;4.398;2023-02-21T17:08:08;37.20;;;20.17;;
40453;SDS011;26160;51.858;4.398;2023-02-21T17:10:34;34.63;;;19.20;;
40453;SDS011;26160;51.858;4.398;2023-02-21T17:13:01;38.57;;;19.30;;
40453;SDS011;26160;51.858;4.398;2023-02-21T17:15:29;31.27;;;18.10;;
40453;SDS011;26160;51.858;4.398;2023-02-21T17:17:59;31.93;;;17.00;;
40453;SDS011;26160;51.858;4.398;2023-02-21T17:20:41;31.97;;;18.23;;
40453;SDS011;26160;51.858;4.398;2023-02-21T17:23:09;27.63;;;16.60;;
40453;SDS011;26160;51.858;4.398;2023-02-21T17:25:35;27.93;;;16.33;;
40453;SDS011;26160;51.858;4.398;2023-02-21T17:28:03;31.37;;;17.67;;
40453;SDS011;26160;51.858;4.398;2023-02-21T17:30:29;28.97;;;16.97;;
40453;SDS011;26160;51.858;4.398;2023-02-21T17:32:56;28.77;;;17.20;;
40453;SDS011;26160;51.858;4.398;2023-02-21T17:35:22;28.77;;;17.20;;
40453;SDS011;26160;51.858;4.398;2023-02-21T17:37:49;28.80;;;16.33;;
40453;SDS011;26160;51.858;4.398;2023-02-21T17:40:17;30.10;;;17.83;;
40453;SDS011;26160;51.858;4.398;2023-02-21T17:42:44;29.33;;;16.80;;
40453;SDS011;26160;51.858;4.398;2023-02-21T17:45:11;31.13;;;18.50;;
40453;SDS011;26160;51.858;4.398;2023-02-21T17:47:42;32.30;;;18.57;;
40453;SDS011;26160;51.858;4.398;2023-02-21T17:50:08;29.73;;;18.53;;
40453;SDS011;26160;51.858;4.398;2023-02-21T17:52:35;31.30;;;18.00;;
40453;SDS011;26160;51.858;4.398;2023-02-21T17:55:01;34.40;;;19.47;;
40453;SDS011;26160;51.858;4.398;2023-02-21T17:57:32;32.87;;;19.73;;
40453;SDS011;26160;51.858;4.398;2023-02-21T18:00:04;35.17;;;20.13;;
40453;SDS011;26160;51.858;4.398;2023-02-21T18:02:34;36.00;;;20.15;;
40453;SDS011;26160;51.858;4.398;2023-02-21T18:05:04;38.97;;;20.47;;
40453;SDS011;26160;51.858;4.398;2023-02-21T18:07:31;38.53;;;20.03;;